Terminal Aerodrome Forecast
Issued by NWS Wilmington, OH

Current Version | Previous Version | Text Only | Print | Product List | Glossary Off
Versions: 1 2 3 4 5 6 7 8 9 10 11 12 13 14 15 16 17 18 19 20 21 22 23 24 25 26

223
FTUS41 KILN 200535
TAFDAY
TAF
KDAY 200535Z 2006/2106 22008KT P6SM FEW035 SCT070
     FM200700 28004KT P6SM SCT025 BKN250
     FM201000 29003KT 5SM BR BKN025
     FM201300 31004KT P6SM SCT080
     FM201800 35006KT P6SM VCTS BKN040CB
     FM202100 01007KT P6SM BKN040
     FM210100 05007KT P6SM VCSH BKN040=

USA.gov is the U.S. government's official web portal to all federal, state and local government web resources and services.